Springfield, IL

10:30 CDT dnia 25-marzec-2017 (GMT -0500)
Springfield West Side | | Change Station

Wysokość 604 ft 39.79 °N, 89.69 °W | Updated 20 seconds ago

przewaga chmur
przewaga chmur
62.4 ° F
Odczuwalna 62.4 ° F
Płn.
4.7
Wiatr zmienny Wiatr od PdWs
Gusts 6.7 mph

Dziś
Wysoka -- | Niska -- ° F
--% Prawdop. opadów
Wczoraj
Wysoka -- | Niska -- ° F
Precip. -- cali
Ciśnienie 29.89 cali
Widzialność 10.0 mil
chmury Niewiele 1700 ft
Punkt rosy 55 ° F
Wilgotność 77%
Opady deszczu 0.34 cali
grubość pokrywy śnieżnej Niedostępne.
6:53 AM 7:16 PM
Zmniejszający się sierp Księżyca, 8% visible
METAR KSPI 251452Z 18015G23KT 10SM FEW017 17/13 A2989 RMK AO2 PK WND 19027/1402 SLP120 T01670128 51034
Ciśnienie 29.89 cali
Widzialność 10.0 mil
chmury Niewiele 1700 ft
Punkt rosy 55 ° F
Wilgotność 77%
Opady deszczu 0.34 cali
grubość pokrywy śnieżnej Niedostępne.
6:53 AM 7:16 PM
Zmniejszający się sierp Księżyca, 8% visible
METAR KSPI 251452Z 18015G23KT 10SM FEW017 17/13 A2989 RMK AO2 PK WND 19027/1402 SLP120 T01670128 51034

Get Severe Weather Alerts

Thanks for signing up!

Be on the lookout for a verification email in your inbox.

You'll start receiving the daily forecast at 8 AM.

×

10-Day Weather Forecast

Almanac

Astronomia

Mar. 25, 2017 Wschód Zachów
Aktualny czas
Zmierzch cywilny
Zmierzch żeglarski
świt/zmierzch astronomiczny
Księżyc
całkowite oświetlenie
Długość dnia
Tomorrow will be .
, % of the Moon is Illuminated

Dzisiejsze ekstrema

State Highs State Lows

Community

WunderPhotos

Upload Photos

1,962,540 zdjęcia zostały przesłane!

WunderBlog® & News

Nearby

Jakość powietrza

  Jakość powietrza czynnik AQ Zanieczyszczenie
Not available.

Głębokość pokrywy śnieżnej

Station Depth n.p.m.

Aktywność sejsmiczna

Miejscowość Distance Mag. Time & Date
Minimum magnitude displayed is 2.5.

Aktywność sejsmiczna

Miejscowość Distance Mag. Time & Date
Minimum magnitude displayed is 2.5.

Temperatury wody na wybrzeżu

Miejsce Temperatura

Stations

Najbliższa stacja pogodowa

Lokalizacja stacji Temp. czynnik chłodzący wiatru Punkt rosy Wilgotność Wiatr Precip. Wysokość Uaktualniono Typ
                   

Watches & Warnings

There are currently no watches in effect.